Byars, Oklahoma
Current Conditions -  °F | °C
As of 8:35 AM on Thursday 23 Oct 2014 (Local Time) from KPVJ Reporting Station
Overcast Overcast  
Wind Chill: 60°   Ceiling: 6000
Heat Index: 60°   Visibility: 10mi
Dew Point: 55°   Wind: 6mph
Humidity: 86%   Direction: 150°SSE
Pressure: 30.14"   Gusts: NA
Location:  34.87°N, 97.05°W
Report Text: KPVJ 231335Z AUTO 15005KT 10SM OVC060 15/13 A3014 RMK AO2 T01530130
Loading
Personal Weather Stations






























Interactive Weather Map
Tropical Storm Tracking
New forecast layout! Learn more

10-Day Weather Forecast

Advertisements
Track Severe Weather on mobile